Time;durP1;ratioP1;P1;durP2;ratioP2;P2;SDS_P1;SDS_P2;PMS_P1;PMS_P2;Temp;Humidity;BMP_temperature;BMP_pressure;BME280_temperature;BME280_humidity;BME280_pressure;Samples;Min_cycle;Max_cycle;Signal;HPM_P1;HPM_P2
2023/06/13 00:01:22;;;;;;;9.60;5.68;;;;;;;;;;5094325;28;20382;-67
2023/06/13 00:03:49;;;;;;;7.10;5.40;;;;;;;;;;5094385;28;20441;-67
2023/06/13 00:06:15;;;;;;;9.88;5.85;;;;;;;;;;5075845;28;20866;-67
2023/06/13 00:08:42;;;;;;;11.45;5.82;;;;;;;;;;5076028;28;20469;-68
2023/06/13 00:11:08;;;;;;;7.13;5.28;;;;;;;;;;5093911;28;20366;-68
2023/06/13 00:13:34;;;;;;;7.68;5.60;;;;;;;;;;5093707;28;20374;-67
2023/06/13 00:16:00;;;;;;;7.43;5.82;;;;;;;;;;5094065;28;20471;-68
2023/06/13 00:18:29;;;;;;;9.15;5.65;;;;;;;;;;5075581;28;20386;-67
2023/06/13 00:20:57;;;;;;;11.82;5.72;;;;;;;;;;5075678;28;20465;-67
2023/06/13 00:23:23;;;;;;;10.55;5.85;;;;;;;;;;5075410;28;20374;-67
2023/06/13 00:25:49;;;;;;;8.55;5.43;;;;;;;;;;5093479;28;20897;-67
2023/06/13 00:28:15;;;;;;;10.80;6.13;;;;;;;;;;5093579;28;20366;-67
2023/06/13 00:30:41;;;;;;;7.88;5.78;;;;;;;;;;5093531;28;20381;-67
2023/06/13 00:33:07;;;;;;;8.50;5.43;;;;;;;;;;5075231;28;20418;-67
2023/06/13 00:35:33;;;;;;;9.00;5.78;;;;;;;;;;5093476;28;20370;-67
2023/06/13 00:38:01;;;;;;;10.98;5.68;;;;;;;;;;5093536;28;20377;-67
2023/06/13 00:40:27;;;;;;;10.70;5.65;;;;;;;;;;5093495;28;20367;-67
2023/06/13 00:42:55;;;;;;;7.07;5.60;;;;;;;;;;5093798;28;20780;-67
2023/06/13 00:45:22;;;;;;;9.80;5.87;;;;;;;;;;5093139;28;20743;-67
2023/06/13 00:47:51;;;;;;;9.80;5.85;;;;;;;;;;5075081;28;20374;-67
2023/06/13 00:50:18;;;;;;;11.48;6.32;;;;;;;;;;5093034;28;20374;-67
2023/06/13 00:52:45;;;;;;;12.10;6.15;;;;;;;;;;5093070;28;20417;-67
2023/06/13 00:55:11;;;;;;;8.93;5.90;;;;;;;;;;5093785;28;20443;-67
2023/06/13 00:57:38;;;;;;;11.85;6.00;;;;;;;;;;5075078;28;20514;-68
2023/06/13 01:00:05;;;;;;;7.15;5.82;;;;;;;;;;5093126;28;20393;-67
2023/06/13 01:02:33;;;;;;;9.65;6.22;;;;;;;;;;5092932;28;20465;-68
2023/06/13 01:05:02;;;;;;;8.60;6.25;;;;;;;;;;5093193;28;20374;-67
2023/06/13 01:07:29;;;;;;;10.25;6.20;;;;;;;;;;5093135;28;20398;-67
2023/06/13 01:09:56;;;;;;;13.38;6.38;;;;;;;;;;5074672;28;20378;-67
2023/06/13 01:12:28;;;;;;;11.13;6.38;;;;;;;;;;5092890;28;20373;-67
2023/06/13 01:14:56;;;;;;;9.45;6.53;;;;;;;;;;5074536;28;20378;-67
2023/06/13 01:17:24;;;;;;;10.57;6.68;;;;;;;;;;5092819;28;20378;-68
2023/06/13 01:19:57;;;;;;;10.65;6.07;;;;;;;;;;5093226;28;20464;-67
2023/06/13 01:22:28;;;;;;;15.05;6.68;;;;;;;;;;5074289;28;20949;-68
2023/06/13 01:25:08;;;;;;;14.05;7.00;;;;;;;;;;5092826;28;20387;-67
2023/06/13 01:27:36;;;;;;;10.07;6.03;;;;;;;;;;5075509;28;20192;-67
2023/06/13 01:30:03;;;;;;;10.30;6.10;;;;;;;;;;5075598;28;20201;-68
2023/06/13 01:32:30;;;;;;;11.53;5.77;;;;;;;;;;5075796;28;20579;-67
2023/06/13 01:34:56;;;;;;;10.57;5.90;;;;;;;;;;5075377;28;20235;-67
2023/06/13 01:37:22;;;;;;;9.97;5.90;;;;;;;;;;5093525;28;20664;-68
2023/06/13 01:39:48;;;;;;;10.53;5.83;;;;;;;;;;5093392;28;20181;-67
2023/06/13 01:42:14;;;;;;;7.37;5.07;;;;;;;;;;5093361;28;20281;-67
2023/06/13 01:44:40;;;;;;;11.70;5.53;;;;;;;;;;5093870;28;20180;-68
2023/06/13 01:47:12;;;;;;;6.13;5.47;;;;;;;;;;5075081;28;20366;-67
2023/06/13 01:49:57;;;;;;;9.23;5.47;;;;;;;;;;5093452;28;20172;-67
2023/06/13 01:52:35;;;;;;;7.57;5.23;;;;;;;;;;5074967;28;20220;-67
2023/06/13 01:55:08;;;;;;;11.33;5.90;;;;;;;;;;5093520;28;20181;-67
2023/06/13 01:57:37;;;;;;;7.93;5.83;;;;;;;;;;5094388;28;20184;-67
2023/06/13 02:00:04;;;;;;;7.60;5.30;;;;;;;;;;5093138;28;20228;-67
2023/06/13 02:02:30;;;;;;;9.37;5.67;;;;;;;;;;5074514;28;20201;-67
2023/06/13 02:04:56;;;;;;;8.57;5.80;;;;;;;;;;5093182;28;20176;-67
2023/06/13 02:07:24;;;;;;;12.10;5.77;;;;;;;;;;5093213;28;20204;-67
2023/06/13 02:09:50;;;;;;;7.03;5.70;;;;;;;;;;5093221;28;20677;-67
2023/06/13 02:12:16;;;;;;;11.13;6.00;;;;;;;;;;5075077;28;20205;-67
2023/06/13 02:14:42;;;;;;;13.73;5.87;;;;;;;;;;5093125;28;20252;-67
2023/06/13 02:17:08;;;;;;;11.97;5.77;;;;;;;;;;5093123;28;20173;-67
2023/06/13 02:19:34;;;;;;;13.57;6.10;;;;;;;;;;5093189;28;20237;-67
2023/06/13 02:22:00;;;;;;;6.37;4.77;;;;;;;;;;5093026;28;20197;-67
2023/06/13 02:24:26;;;;;;;9.63;5.63;;;;;;;;;;5093682;28;20181;-67
2023/06/13 02:26:52;;;;;;;5.83;5.30;;;;;;;;;;5074764;28;20205;-67
2023/06/13 02:29:18;;;;;;;10.00;5.50;;;;;;;;;;5093221;28;20669;-67
2023/06/13 02:31:45;;;;;;;13.43;5.70;;;;;;;;;;5092713;28;20280;-66
2023/06/13 02:34:11;;;;;;;6.90;5.10;;;;;;;;;;5075254;28;20569;-67
2023/06/13 02:36:37;;;;;;;13.53;6.57;;;;;;;;;;5092866;28;20192;-67
2023/06/13 02:39:04;;;;;;;17.57;5.90;;;;;;;;;;5092929;28;20185;-66
2023/06/13 02:41:30;;;;;;;8.00;5.87;;;;;;;;;;5092710;28;20282;-67
2023/06/13 02:43:56;;;;;;;11.27;6.10;;;;;;;;;;5093190;28;20184;-67
2023/06/13 02:46:22;;;;;;;7.80;5.97;;;;;;;;;;5092828;28;20201;-67
2023/06/13 02:48:48;;;;;;;7.63;5.27;;;;;;;;;;5092915;28;20173;-67
2023/06/13 02:51:13;;;;;;;6.30;5.20;;;;;;;;;;5092848;28;20177;-67
2023/06/13 02:53:39;;;;;;;10.27;5.77;;;;;;;;;;5074669;28;20242;-67
2023/06/13 02:56:06;;;;;;;11.00;6.07;;;;;;;;;;5092797;28;20639;-67
2023/06/13 02:58:32;;;;;;;8.60;6.10;;;;;;;;;;5074568;28;20278;-67
2023/06/13 03:00:58;;;;;;;9.50;5.93;;;;;;;;;;5092965;28;20647;-67
2023/06/13 03:03:24;;;;;;;9.00;6.30;;;;;;;;;;5092634;28;20693;-67
2023/06/13 03:05:56;;;;;;;8.43;5.70;;;;;;;;;;5074422;28;20262;-67
2023/06/13 03:08:22;;;;;;;11.33;5.97;;;;;;;;;;5093115;28;20153;-67
2023/06/13 03:10:50;;;;;;;15.03;6.20;;;;;;;;;;5093168;28;20230;-67
2023/06/13 03:13:16;;;;;;;10.33;6.17;;;;;;;;;;5074894;28;20197;-67
2023/06/13 03:15:45;;;;;;;12.07;5.87;;;;;;;;;;5097468;28;20260;-67
2023/06/13 03:18:11;;;;;;;9.87;6.80;;;;;;;;;;5097563;28;20246;-66
2023/06/13 03:20:37;;;;;;;8.67;5.87;;;;;;;;;;5079976;28;20659;-67
2023/06/13 03:23:03;;;;;;;11.60;5.83;;;;;;;;;;5097991;28;20659;-66
2023/06/13 03:25:32;;;;;;;7.70;6.00;;;;;;;;;;5097618;28;20177;-66
2023/06/13 03:27:58;;;;;;;9.00;6.17;;;;;;;;;;5079517;28;20230;-67
2023/06/13 03:30:24;;;;;;;8.63;5.77;;;;;;;;;;5079000;28;20271;-67
2023/06/13 03:32:54;;;;;;;10.00;5.67;;;;;;;;;;5097848;28;20820;-67
2023/06/13 03:35:20;;;;;;;8.20;5.87;;;;;;;;;;5083289;28;20180;-67
2023/06/13 03:37:46;;;;;;;7.47;5.43;;;;;;;;;;5089335;28;20188;-68
2023/06/13 03:40:12;;;;;;;9.47;5.93;;;;;;;;;;5085481;28;20189;-67
2023/06/13 03:42:38;;;;;;;7.87;5.80;;;;;;;;;;5104475;28;20257;-67
2023/06/13 03:45:04;;;;;;;7.63;6.30;;;;;;;;;;5107591;28;20172;-67
2023/06/13 03:47:30;;;;;;;8.53;5.43;;;;;;;;;;5104279;22;20220;-64
2023/06/13 03:49:56;;;;;;;9.90;6.17;;;;;;;;;;5095957;28;20249;-64
2023/06/13 03:52:22;;;;;;;5.97;5.37;;;;;;;;;;5095971;28;20222;-65
2023/06/13 03:54:48;;;;;;;8.43;5.87;;;;;;;;;;5095513;28;20178;-65
2023/06/13 03:57:14;;;;;;;8.03;5.60;;;;;;;;;;5095524;28;20201;-64
2023/06/13 03:59:40;;;;;;;7.40;5.30;;;;;;;;;;5077411;28;20191;-64
2023/06/13 04:02:06;;;;;;;8.13;5.63;;;;;;;;;;5096985;28;20635;-64
2023/06/13 04:04:33;;;;;;;8.30;5.67;;;;;;;;;;5077152;28;20183;-63
2023/06/13 04:07:04;;;;;;;7.30;5.60;;;;;;;;;;5077053;28;20244;-64
2023/06/13 04:09:30;;;;;;;11.67;6.13;;;;;;;;;;5095510;28;20160;-63
2023/06/13 04:11:56;;;;;;;9.83;5.53;;;;;;;;;;5095472;28;20174;-64
2023/06/13 04:14:22;;;;;;;6.90;5.60;;;;;;;;;;5095080;28;20651;-64
2023/06/13 04:16:48;;;;;;;8.03;5.70;;;;;;;;;;5094935;28;20188;-64
2023/06/13 04:19:18;;;;;;;11.90;5.93;;;;;;;;;;5094971;28;20219;-64
2023/06/13 04:21:45;;;;;;;10.47;5.60;;;;;;;;;;5095076;28;20299;-65
2023/06/13 04:24:12;;;;;;;8.00;6.17;;;;;;;;;;5094975;28;20177;-64
2023/06/13 04:26:37;;;;;;;13.97;5.87;;;;;;;;;;5094321;28;20219;-64
2023/06/13 04:29:03;;;;;;;12.43;5.80;;;;;;;;;;5095267;28;20626;-66
2023/06/13 04:31:34;;;;;;;8.30;5.90;;;;;;;;;;5094787;28;20552;-64
2023/06/13 04:34:02;;;;;;;8.20;5.60;;;;;;;;;;5076575;28;20181;-65
2023/06/13 04:36:29;;;;;;;8.13;5.60;;;;;;;;;;5094600;28;20173;-64
2023/06/13 04:38:55;;;;;;;13.40;5.93;;;;;;;;;;5094485;28;20230;-64
2023/06/13 04:41:23;;;;;;;8.27;6.10;;;;;;;;;;5094520;28;20251;-64
2023/06/13 04:43:49;;;;;;;11.37;6.60;;;;;;;;;;5076262;28;20201;-66
2023/06/13 04:46:18;;;;;;;12.27;5.57;;;;;;;;;;5094241;28;20240;-64
2023/06/13 04:48:44;;;;;;;6.40;5.80;;;;;;;;;;5094326;28;20325;-66
2023/06/13 04:51:10;;;;;;;11.07;6.20;;;;;;;;;;5076187;28;20185;-65
2023/06/13 04:53:37;;;;;;;12.50;5.80;;;;;;;;;;5076068;28;20180;-65
2023/06/13 04:56:04;;;;;;;11.80;6.10;;;;;;;;;;5094567;28;20173;-65
2023/06/13 04:58:30;;;;;;;14.13;7.00;;;;;;;;;;5094746;28;20556;-64
2023/06/13 05:00:58;;;;;;;13.20;6.50;;;;;;;;;;5075893;28;20181;-65
2023/06/13 05:03:25;;;;;;;9.73;6.47;;;;;;;;;;5094255;28;20177;-65
2023/06/13 05:05:51;;;;;;;8.50;6.07;;;;;;;;;;5075829;28;20201;-66
2023/06/13 05:08:21;;;;;;;9.40;6.30;;;;;;;;;;5093958;28;20196;-65
2023/06/13 05:10:47;;;;;;;9.63;6.27;;;;;;;;;;5075870;28;20208;-64
2023/06/13 05:13:14;;;;;;;9.83;6.33;;;;;;;;;;5093999;28;20173;-65
2023/06/13 05:15:42;;;;;;;10.20;6.80;;;;;;;;;;5094256;28;20171;-68
2023/06/13 05:18:12;;;;;;;9.10;6.40;;;;;;;;;;5094153;28;20200;-65
2023/06/13 05:20:38;;;;;;;11.20;6.70;;;;;;;;;;5094144;28;20627;-65
2023/06/13 05:23:04;;;;;;;12.10;6.10;;;;;;;;;;5094438;28;20252;-66
2023/06/13 05:25:30;;;;;;;12.07;7.17;;;;;;;;;;5075858;28;20684;-66
2023/06/13 05:27:56;;;;;;;12.87;6.37;;;;;;;;;;5075647;28;20207;-65
2023/06/13 05:30:22;;;;;;;15.90;7.33;;;;;;;;;;5093717;28;20177;-65
2023/06/13 05:32:48;;;;;;;15.33;7.17;;;;;;;;;;5093753;28;20551;-65
2023/06/13 05:35:14;;;;;;;16.00;7.13;;;;;;;;;;5075486;28;20207;-67
2023/06/13 05:37:41;;;;;;;14.40;6.80;;;;;;;;;;5092899;28;20207;-66
2023/06/13 05:40:08;;;;;;;17.33;7.20;;;;;;;;;;5075451;28;20560;-66
2023/06/13 05:42:35;;;;;;;19.77;7.40;;;;;;;;;;5075429;28;20180;-65
2023/06/13 05:45:05;;;;;;;18.87;6.77;;;;;;;;;;5093808;28;20173;-66
2023/06/13 05:47:31;;;;;;;17.73;7.07;;;;;;;;;;5094944;28;20216;-65
2023/06/13 05:49:57;;;;;;;16.97;7.27;;;;;;;;;;5097397;28;20184;-65
2023/06/13 05:52:23;;;;;;;12.80;6.90;;;;;;;;;;5075418;28;20177;-65
2023/06/13 05:54:49;;;;;;;17.70;6.20;;;;;;;;;;5075281;28;20238;-65
2023/06/13 05:57:15;;;;;;;18.40;6.23;;;;;;;;;;5093637;28;20193;-66
2023/06/13 05:59:41;;;;;;;16.33;5.83;;;;;;;;;;5075363;28;20177;-65
2023/06/13 06:02:12;;;;;;;14.33;6.70;;;;;;;;;;5093384;28;20707;-66
2023/06/13 06:04:38;;;;;;;15.23;6.27;;;;;;;;;;5075616;28;20200;-65
2023/06/13 06:07:05;;;;;;;14.23;6.60;;;;;;;;;;5093336;28;20215;-65
2023/06/13 06:09:31;;;;;;;14.10;6.30;;;;;;;;;;5093479;28;20177;-65
2023/06/13 06:11:57;;;;;;;12.60;6.30;;;;;;;;;;5093172;28;20205;-65
2023/06/13 06:14:28;;;;;;;12.07;6.03;;;;;;;;;;5077615;28;20173;-66
2023/06/13 06:16:55;;;;;;;8.20;5.83;;;;;;;;;;5075437;28;20584;-65
2023/06/13 06:19:21;;;;;;;14.40;6.60;;;;;;;;;;5093434;28;20181;-65
2023/06/13 06:21:47;;;;;;;12.27;5.50;;;;;;;;;;5093057;28;20177;-66
2023/06/13 06:24:13;;;;;;;11.73;5.47;;;;;;;;;;5093715;28;20177;-66
2023/06/13 06:26:38;;;;;;;13.07;6.60;;;;;;;;;;5074929;28;20207;-65
2023/06/13 06:29:04;;;;;;;9.33;5.37;;;;;;;;;;5093125;28;20173;-66
2023/06/13 06:31:30;;;;;;;9.93;5.33;;;;;;;;;;5093542;28;20201;-66
2023/06/13 06:33:56;;;;;;;16.20;5.83;;;;;;;;;;5093029;28;20204;-67
2023/06/13 06:36:23;;;;;;;11.60;5.40;;;;;;;;;;5074898;28;20192;-65
2023/06/13 06:38:49;;;;;;;8.70;5.40;;;;;;;;;;5075410;28;20197;-67
2023/06/13 06:41:16;;;;;;;8.43;5.43;;;;;;;;;;5093533;28;20579;-65
2023/06/13 06:43:42;;;;;;;9.27;5.27;;;;;;;;;;5074915;28;20189;-65
2023/06/13 06:46:08;;;;;;;7.90;5.07;;;;;;;;;;5093490;28;20216;-65
2023/06/13 06:48:34;;;;;;;10.23;5.23;;;;;;;;;;5094140;28;20296;-66
2023/06/13 06:51:00;;;;;;;10.67;5.23;;;;;;;;;;5097114;28;20216;-65
2023/06/13 06:53:26;;;;;;;11.30;5.90;;;;;;;;;;5096702;28;20177;-66
2023/06/13 06:55:52;;;;;;;7.53;5.43;;;;;;;;;;5098519;28;20534;-65
2023/06/13 06:58:18;;;;;;;10.27;5.37;;;;;;;;;;5099176;28;20686;-66
2023/06/13 07:00:44;;;;;;;9.43;5.90;;;;;;;;;;5098054;28;20203;-66
2023/06/13 07:03:10;;;;;;;12.90;5.33;;;;;;;;;;5098274;28;20169;-65
2023/06/13 07:05:36;;;;;;;10.70;5.43;;;;;;;;;;5098061;28;20530;-66
2023/06/13 07:08:02;;;;;;;14.00;6.00;;;;;;;;;;5098317;28;20220;-66
2023/06/13 07:10:28;;;;;;;10.43;5.47;;;;;;;;;;5080102;28;20649;-64
2023/06/13 07:12:54;;;;;;;10.17;5.20;;;;;;;;;;5098247;28;20199;-65
2023/06/13 07:15:20;;;;;;;12.03;5.47;;;;;;;;;;5098340;28;20227;-65
2023/06/13 07:17:46;;;;;;;8.93;5.60;;;;;;;;;;5079679;28;20209;-65
2023/06/13 07:20:12;;;;;;;10.87;5.97;;;;;;;;;;5079877;28;20188;-65
2023/06/13 07:22:38;;;;;;;8.17;5.30;;;;;;;;;;5097773;28;20201;-64
2023/06/13 07:25:04;;;;;;;16.33;5.67;;;;;;;;;;5097741;28;20209;-64
2023/06/13 07:27:30;;;;;;;7.87;5.13;;;;;;;;;;5079233;28;20234;-64
2023/06/13 07:29:56;;;;;;;8.57;5.70;;;;;;;;;;5098122;28;20226;-64
2023/06/13 07:32:22;;;;;;;7.27;5.17;;;;;;;;;;5097163;28;20184;-64
2023/06/13 07:34:49;;;;;;;8.90;5.37;;;;;;;;;;5097037;28;20176;-65
2023/06/13 07:37:15;;;;;;;14.03;5.90;;;;;;;;;;5097411;28;20588;-64
2023/06/13 07:39:41;;;;;;;13.10;5.60;;;;;;;;;;5098652;28;20183;-65
2023/06/13 07:42:07;;;;;;;9.17;5.80;;;;;;;;;;5078119;28;20379;-65
2023/06/13 07:44:33;;;;;;;7.03;5.70;;;;;;;;;;5077597;28;20507;-65
2023/06/13 07:46:59;;;;;;;8.07;5.13;;;;;;;;;;5096928;28;20213;-65
2023/06/13 07:49:25;;;;;;;7.03;4.77;;;;;;;;;;5097556;28;20164;-64
2023/06/13 07:51:51;;;;;;;7.97;4.87;;;;;;;;;;5096948;28;20188;-64
2023/06/13 07:54:17;;;;;;;7.07;4.93;;;;;;;;;;5096622;28;20173;-65
2023/06/13 07:56:44;;;;;;;11.53;5.50;;;;;;;;;;5097153;28;20177;-65
2023/06/13 07:59:10;;;;;;;5.10;4.60;;;;;;;;;;5079140;28;20290;-65
2023/06/13 08:01:36;;;;;;;6.10;5.37;;;;;;;;;;5096993;28;20168;-65
2023/06/13 08:04:02;;;;;;;5.57;5.07;;;;;;;;;;5096673;28;20230;-65
2023/06/13 08:06:28;;;;;;;7.80;5.00;;;;;;;;;;5078461;28;20197;-66
2023/06/13 08:08:54;;;;;;;10.33;5.30;;;;;;;;;;5079589;28;20553;-66
2023/06/13 08:11:20;;;;;;;5.67;5.07;;;;;;;;;;5096690;28;20173;-69
2023/06/13 08:13:46;;;;;;;9.83;4.90;;;;;;;;;;5097300;28;20169;-66
2023/06/13 08:16:12;;;;;;;7.87;5.07;;;;;;;;;;5097238;28;20725;-66
2023/06/13 08:18:39;;;;;;;7.73;5.30;;;;;;;;;;5096708;28;20204;-66
2023/06/13 08:21:04;;;;;;;8.90;5.17;;;;;;;;;;5077903;28;20181;-65
2023/06/13 08:23:30;;;;;;;7.33;5.20;;;;;;;;;;5095312;28;20374;-65
2023/06/13 08:25:56;;;;;;;10.52;5.72;;;;;;;;;;5094813;28;20885;-66
2023/06/13 08:28:23;;;;;;;8.63;5.35;;;;;;;;;;5076436;28;20374;-64
2023/06/13 08:30:49;;;;;;;12.07;5.72;;;;;;;;;;5096329;28;20424;-64
2023/06/13 08:33:15;;;;;;;10.38;5.68;;;;;;;;;;5076755;28;20752;-66
2023/06/13 08:35:41;;;;;;;8.10;5.70;;;;;;;;;;5094654;28;20378;-67
2023/06/13 08:38:07;;;;;;;10.10;5.72;;;;;;;;;;5094965;28;20446;-66
2023/06/13 08:40:33;;;;;;;7.88;5.82;;;;;;;;;;5094776;28;20423;-65
2023/06/13 08:43:00;;;;;;;7.65;5.50;;;;;;;;;;5094277;28;20370;-67
2023/06/13 08:45:26;;;;;;;6.45;5.50;;;;;;;;;;5076446;28;20427;-64
2023/06/13 08:47:53;;;;;;;9.23;6.35;;;;;;;;;;5094081;28;20417;-65
2023/06/13 08:50:24;;;;;;;9.30;5.78;;;;;;;;;;5094619;28;20370;-65
2023/06/13 08:52:50;;;;;;;7.10;5.38;;;;;;;;;;5076373;28;20583;-65
2023/06/13 08:55:17;;;;;;;7.90;5.75;;;;;;;;;;5094527;28;20434;-65
2023/06/13 08:57:45;;;;;;;7.28;5.40;;;;;;;;;;5094227;28;20968;-65
2023/06/13 09:00:12;;;;;;;7.73;5.50;;;;;;;;;;5094028;28;20852;-65
2023/06/13 09:02:45;;;;;;;9.45;5.78;;;;;;;;;;5075897;28;20390;-65
2023/06/13 09:05:13;;;;;;;9.25;5.90;;;;;;;;;;5076320;28;20389;-66
2023/06/13 09:07:40;;;;;;;9.65;5.97;;;;;;;;;;5093959;28;20827;-65
2023/06/13 09:10:10;;;;;;;8.77;6.07;;;;;;;;;;5094402;28;20376;-66
2023/06/13 09:12:36;;;;;;;8.93;5.82;;;;;;;;;;5094456;28;20377;-66
2023/06/13 09:15:02;;;;;;;8.47;5.80;;;;;;;;;;5094543;28;20467;-65
2023/06/13 09:17:28;;;;;;;8.50;5.68;;;;;;;;;;5094090;28;20389;-66
2023/06/13 09:19:54;;;;;;;8.32;5.78;;;;;;;;;;5076156;28;20481;-66
2023/06/13 09:22:21;;;;;;;9.85;5.68;;;;;;;;;;5093665;28;20386;-66
2023/06/13 09:24:47;;;;;;;8.98;5.63;;;;;;;;;;5093506;28;20401;-65
2023/06/13 09:27:14;;;;;;;7.55;5.78;;;;;;;;;;5075781;28;20410;-66
2023/06/13 09:29:40;;;;;;;9.55;5.82;;;;;;;;;;5093935;28;20374;-66
2023/06/13 09:32:08;;;;;;;12.23;5.35;;;;;;;;;;5093723;28;20378;-65
2023/06/13 09:34:34;;;;;;;7.38;5.75;;;;;;;;;;5093826;28;20778;-65
2023/06/13 09:37:00;;;;;;;8.65;5.25;;;;;;;;;;5093992;28;20390;-65
2023/06/13 09:39:28;;;;;;;10.23;5.55;;;;;;;;;;5093980;28;20428;-65
2023/06/13 09:41:55;;;;;;;10.32;5.30;;;;;;;;;;5093986;28;20457;-65
2023/06/13 09:44:22;;;;;;;11.27;5.50;;;;;;;;;;5093835;28;20381;-67
2023/06/13 09:46:50;;;;;;;8.38;5.22;;;;;;;;;;5075612;28;20445;-65
2023/06/13 09:49:17;;;;;;;7.25;5.75;;;;;;;;;;5114771;22;20807;-67
2023/06/13 09:51:43;;;;;;;7.78;5.57;;;;;;;;;;5092077;28;20369;-68
2023/06/13 09:54:09;;;;;;;6.63;4.70;;;;;;;;;;5093366;28;20200;-68
2023/06/13 09:56:35;;;;;;;5.37;4.87;;;;;;;;;;5075368;28;20180;-67
2023/06/13 09:59:02;;;;;;;7.53;4.90;;;;;;;;;;5075199;28;20586;-67
2023/06/13 10:01:29;;;;;;;6.57;4.97;;;;;;;;;;5075327;28;20172;-67
2023/06/13 10:03:56;;;;;;;15.30;5.30;;;;;;;;;;5075116;28;20181;-67
2023/06/13 10:06:23;;;;;;;5.53;4.90;;;;;;;;;;5075086;28;20575;-67
2023/06/13 10:08:49;;;;;;;6.90;5.03;;;;;;;;;;5093199;28;20251;-68
2023/06/13 10:11:22;;;;;;;7.43;5.10;;;;;;;;;;5093235;28;20181;-67
2023/06/13 10:13:51;;;;;;;5.40;4.90;;;;;;;;;;5093411;28;20198;-67
2023/06/13 10:16:20;;;;;;;8.80;5.57;;;;;;;;;;5093428;28;20607;-67
2023/06/13 10:18:47;;;;;;;9.93;4.83;;;;;;;;;;5075245;28;20603;-67
2023/06/13 10:21:14;;;;;;;6.67;4.83;;;;;;;;;;5093451;28;20184;-66
2023/06/13 10:23:48;;;;;;;4.60;4.17;;;;;;;;;;5095861;28;20176;-67
2023/06/13 10:26:17;;;;;;;9.40;5.13;;;;;;;;;;5098321;28;20185;-67
2023/06/13 10:28:43;;;;;;;6.90;5.20;;;;;;;;;;5079940;28;20211;-66
2023/06/13 10:31:12;;;;;;;7.10;4.90;;;;;;;;;;5098057;28;20173;-67
2023/06/13 10:34:01;;;;;;;9.03;5.23;;;;;;;;;;5079272;28;20180;-68
2023/06/13 10:36:40;;;;;;;7.83;5.30;;;;;;;;;;5091482;28;20197;-68
2023/06/13 10:39:25;;;;;;;11.27;5.63;;;;;;;;;;5078710;28;20219;-66
2023/06/13 10:41:57;;;;;;;6.40;4.87;;;;;;;;;;5096902;28;20253;-66
2023/06/13 10:44:39;;;;;;;9.87;5.43;;;;;;;;;;5078688;28;20223;-66
2023/06/13 10:47:06;;;;;;;6.30;4.90;;;;;;;;;;5097230;28;20207;-67
2023/06/13 10:49:38;;;;;;;5.97;5.47;;;;;;;;;;5096704;28;20678;-67
2023/06/13 10:52:05;;;;;;;6.93;5.00;;;;;;;;;;5096786;28;20615;-66
2023/06/13 10:54:31;;;;;;;5.37;4.87;;;;;;;;;;5096680;28;20173;-66
2023/06/13 10:57:00;;;;;;;6.67;5.13;;;;;;;;;;5096489;28;20185;-67
2023/06/13 10:59:28;;;;;;;7.20;5.20;;;;;;;;;;5078359;28;20252;-66
2023/06/13 11:01:54;;;;;;;8.47;5.47;;;;;;;;;;5078450;28;20184;-68
2023/06/13 11:04:21;;;;;;;8.03;5.67;;;;;;;;;;5096822;28;20173;-68
2023/06/13 11:06:50;;;;;;;8.97;4.87;;;;;;;;;;5096528;28;20205;-66
2023/06/13 11:09:17;;;;;;;8.77;5.30;;;;;;;;;;5078555;28;20693;-66
2023/06/13 11:11:53;;;;;;;7.63;5.50;;;;;;;;;;5078884;28;20173;-67
2023/06/13 11:14:24;;;;;;;7.43;5.10;;;;;;;;;;5096384;28;20290;-66
2023/06/13 11:16:50;;;;;;;9.10;5.47;;;;;;;;;;5078015;28;20180;-66
2023/06/13 11:19:17;;;;;;;5.40;4.80;;;;;;;;;;5096426;28;20201;-67
2023/06/13 11:21:44;;;;;;;5.93;5.33;;;;;;;;;;5096379;28;20180;-67
2023/06/13 11:24:14;;;;;;;7.17;5.40;;;;;;;;;;5078093;28;20181;-67
2023/06/13 11:26:40;;;;;;;8.93;6.10;;;;;;;;;;5096297;28;20192;-66
2023/06/13 11:29:07;;;;;;;7.73;5.53;;;;;;;;;;5077941;28;20197;-66
2023/06/13 11:31:34;;;;;;;6.20;5.60;;;;;;;;;;5096412;28;20182;-67
2023/06/13 11:34:02;;;;;;;5.70;5.17;;;;;;;;;;5095697;28;20177;-66
2023/06/13 11:36:28;;;;;;;6.90;4.90;;;;;;;;;;5095367;28;20250;-66
2023/06/13 11:38:57;;;;;;;8.70;5.27;;;;;;;;;;5077907;28;20251;-66
2023/06/13 11:41:23;;;;;;;8.27;5.30;;;;;;;;;;5078028;28;20189;-66
2023/06/13 11:43:49;;;;;;;10.80;5.80;;;;;;;;;;5078060;28;20181;-66
2023/06/13 11:46:15;;;;;;;9.87;5.97;;;;;;;;;;5097270;28;20697;-66
2023/06/13 11:48:41;;;;;;;8.27;5.60;;;;;;;;;;5096302;28;20173;-66
2023/06/13 11:51:08;;;;;;;7.23;5.17;;;;;;;;;;5078114;28;20180;-66
2023/06/13 11:53:46;;;;;;;7.83;4.70;;;;;;;;;;5096230;28;20169;-67
2023/06/13 11:56:12;;;;;;;6.07;5.33;;;;;;;;;;5095879;28;20244;-66
2023/06/13 11:58:38;;;;;;;6.90;5.60;;;;;;;;;;5095494;28;20205;-67
2023/06/13 12:01:04;;;;;;;7.37;5.37;;;;;;;;;;5077286;28;20677;-67
2023/06/13 12:03:37;;;;;;;9.37;5.43;;;;;;;;;;5095353;28;20211;-67
2023/06/13 12:06:03;;;;;;;10.37;5.57;;;;;;;;;;5095867;28;20165;-67
2023/06/13 12:08:29;;;;;;;7.50;4.87;;;;;;;;;;5077219;28;20177;-66
2023/06/13 12:10:56;;;;;;;5.40;4.90;;;;;;;;;;5077517;28;20173;-67
2023/06/13 12:13:22;;;;;;;6.97;5.63;;;;;;;;;;5077201;28;20275;-66
2023/06/13 12:15:48;;;;;;;5.53;5.03;;;;;;;;;;5076989;28;20212;-67
2023/06/13 12:18:15;;;;;;;12.00;6.00;;;;;;;;;;5095358;28;20173;-67
2023/06/13 12:20:48;;;;;;;6.17;5.57;;;;;;;;;;5094889;28;20203;-66
2023/06/13 12:23:16;;;;;;;10.73;5.50;;;;;;;;;;5076792;28;20231;-67
2023/06/13 12:25:42;;;;;;;7.83;5.80;;;;;;;;;;5076752;28;20177;-67
2023/06/13 12:28:12;;;;;;;6.23;5.57;;;;;;;;;;5076704;28;20209;-66
2023/06/13 12:30:40;;;;;;;6.00;5.10;;;;;;;;;;5095216;28;20185;-67
2023/06/13 12:33:14;;;;;;;6.00;5.40;;;;;;;;;;5095189;28;20169;-66
2023/06/13 12:35:48;;;;;;;8.00;5.70;;;;;;;;;;5076885;28;20183;-67
2023/06/13 12:38:15;;;;;;;6.17;5.33;;;;;;;;;;5094945;28;20627;-66
2023/06/13 12:40:40;;;;;;;7.10;5.70;;;;;;;;;;5076843;28;20292;-66
2023/06/13 12:43:06;;;;;;;6.53;5.73;;;;;;;;;;5095768;28;20257;-66
2023/06/13 12:45:32;;;;;;;13.77;5.80;;;;;;;;;;5094768;28;20182;-66
2023/06/13 12:47:58;;;;;;;7.63;5.73;;;;;;;;;;5094335;28;20212;-66
2023/06/13 12:50:25;;;;;;;6.43;5.30;;;;;;;;;;5094480;28;20223;-67
2023/06/13 12:53:07;;;;;;;7.83;4.90;;;;;;;;;;5094236;28;20544;-67
2023/06/13 12:55:33;;;;;;;6.60;4.90;;;;;;;;;;5076130;28;20208;-67
2023/06/13 12:58:02;;;;;;;8.40;5.17;;;;;;;;;;5094417;28;20174;-66
2023/06/13 13:00:29;;;;;;;9.00;5.03;;;;;;;;;;5075958;28;20197;-67
2023/06/13 13:02:55;;;;;;;5.87;5.27;;;;;;;;;;5094089;28;20681;-67
2023/06/13 13:05:21;;;;;;;8.53;5.83;;;;;;;;;;5094383;28;20185;-66
2023/06/13 13:07:51;;;;;;;6.93;5.20;;;;;;;;;;5076007;28;20240;-66
2023/06/13 13:10:17;;;;;;;10.80;5.70;;;;;;;;;;5075973;28;20205;-66
2023/06/13 13:12:43;;;;;;;6.23;5.63;;;;;;;;;;5094110;28;20184;-66
2023/06/13 13:15:09;;;;;;;6.53;5.87;;;;;;;;;;5076048;28;20244;-66
2023/06/13 13:17:35;;;;;;;8.57;5.40;;;;;;;;;;5075879;28;20189;-67
2023/06/13 13:20:02;;;;;;;8.53;5.20;;;;;;;;;;5094053;28;20201;-66
2023/06/13 13:22:28;;;;;;;13.63;5.87;;;;;;;;;;5093845;28;20204;-66
2023/06/13 13:24:54;;;;;;;6.03;5.50;;;;;;;;;;5093998;28;20188;-66
2023/06/13 13:27:20;;;;;;;6.80;5.27;;;;;;;;;;5093770;28;20225;-67
2023/06/13 13:29:46;;;;;;;7.97;5.97;;;;;;;;;;5075856;28;20228;-66
2023/06/13 13:32:12;;;;;;;11.17;5.63;;;;;;;;;;5076163;28;20177;-66
2023/06/13 13:34:38;;;;;;;7.93;5.88;;;;;;;;;;5094107;28;20176;-66
2023/06/13 13:40:08;;;;;;;11.13;5.70;;;;;;;;;;5094198;28;20246;-66
2023/06/13 13:42:36;;;;;;;12.32;5.60;;;;;;;;;;5075484;28;20183;-67
2023/06/13 13:45:02;;;;;;;6.72;5.43;;;;;;;;;;5075757;28;20173;-67
2023/06/13 13:47:28;;;;;;;9.30;5.88;;;;;;;;;;5093776;28;20196;-67
2023/06/13 13:49:57;;;;;;;6.38;5.68;;;;;;;;;;5075725;28;20625;-66
2023/06/13 13:52:23;;;;;;;18.88;6.43;;;;;;;;;;5093805;28;20240;-68
2023/06/13 13:54:49;;;;;;;12.32;6.20;;;;;;;;;;5093827;28;20173;-67
2023/06/13 13:57:15;;;;;;;8.35;6.43;;;;;;;;;;5093199;28;20181;-67
2023/06/13 13:59:41;;;;;;;8.18;5.72;;;;;;;;;;5093415;28;20204;-67
2023/06/13 14:02:07;;;;;;;7.18;5.75;;;;;;;;;;5095479;28;20177;-67
2023/06/13 14:04:33;;;;;;;5.55;4.93;;;;;;;;;;5075988;28;20212;-67
2023/06/13 14:06:59;;;;;;;8.45;5.75;;;;;;;;;;5093866;28;20207;-68
2023/06/13 14:09:25;;;;;;;13.00;5.43;;;;;;;;;;5075416;28;20197;-67
2023/06/13 14:11:51;;;;;;;6.30;5.18;;;;;;;;;;5075386;28;20183;-67
2023/06/13 14:14:18;;;;;;;9.25;5.43;;;;;;;;;;5093416;28;20176;-67
2023/06/13 14:16:44;;;;;;;7.25;5.10;;;;;;;;;;5093530;28;20177;-67
2023/06/13 14:19:10;;;;;;;11.10;5.50;;;;;;;;;;5093145;28;20219;-66
2023/06/13 14:21:36;;;;;;;16.50;5.85;;;;;;;;;;5093580;28;20173;-66
2023/06/13 14:24:02;;;;;;;9.45;5.38;;;;;;;;;;5093125;28;20177;-66
2023/06/13 14:26:29;;;;;;;7.70;5.25;;;;;;;;;;5093254;28;20208;-66
2023/06/13 14:28:55;;;;;;;9.90;5.22;;;;;;;;;;5093076;28;20193;-66
2023/06/13 14:31:21;;;;;;;10.25;5.40;;;;;;;;;;5074927;28;20568;-67
2023/06/13 14:33:48;;;;;;;10.32;5.75;;;;;;;;;;5093305;28;20540;-67
2023/06/13 14:36:14;;;;;;;8.60;5.38;;;;;;;;;;5075382;28;20663;-67
2023/06/13 14:38:41;;;;;;;7.80;5.40;;;;;;;;;;5092996;28;20185;-66
2023/06/13 14:41:08;;;;;;;10.40;5.30;;;;;;;;;;5093481;28;20635;-67